sensor_id;sensor_type;location;lat;lon;timestamp;P1;durP1;ratioP1;P2;durP2;ratioP2
18732;SDS011;9495;51.210;2.934;2022-07-29T00:01:40;4.40;;;2.13;;
18732;SDS011;9495;51.210;2.934;2022-07-29T00:04:09;5.22;;;2.03;;
18732;SDS011;9495;51.210;2.934;2022-07-29T00:06:37;5.32;;;2.10;;
18732;SDS011;9495;51.210;2.934;2022-07-29T00:09:07;3.45;;;1.75;;
18732;SDS011;9495;51.210;2.934;2022-07-29T00:11:36;3.75;;;2.10;;
18732;SDS011;9495;51.210;2.934;2022-07-29T00:14:04;4.28;;;1.98;;
18732;SDS011;9495;51.210;2.934;2022-07-29T00:16:33;5.07;;;2.05;;
18732;SDS011;9495;51.210;2.934;2022-07-29T00:19:02;3.00;;;1.80;;
18732;SDS011;9495;51.210;2.934;2022-07-29T00:21:33;6.30;;;2.40;;
18732;SDS011;9495;51.210;2.934;2022-07-29T00:24:01;6.15;;;2.40;;
18732;SDS011;9495;51.210;2.934;2022-07-29T00:26:31;5.65;;;2.03;;
18732;SDS011;9495;51.210;2.934;2022-07-29T00:29:00;3.55;;;2.03;;
18732;SDS011;9495;51.210;2.934;2022-07-29T00:31:49;4.72;;;1.90;;
18732;SDS011;9495;51.210;2.934;2022-07-29T00:34:18;4.68;;;2.10;;
18732;SDS011;9495;51.210;2.934;2022-07-29T00:37:04;7.43;;;2.00;;
18732;SDS011;9495;51.210;2.934;2022-07-29T00:39:33;7.43;;;2.38;;
18732;SDS011;9495;51.210;2.934;2022-07-29T00:42:03;4.88;;;2.08;;
18732;SDS011;9495;51.210;2.934;2022-07-29T00:44:35;8.35;;;2.72;;
18732;SDS011;9495;51.210;2.934;2022-07-29T00:47:05;3.28;;;2.33;;
18732;SDS011;9495;51.210;2.934;2022-07-29T00:49:34;8.38;;;2.67;;
18732;SDS011;9495;51.210;2.934;2022-07-29T00:52:03;3.95;;;2.10;;
18732;SDS011;9495;51.210;2.934;2022-07-29T00:54:32;4.28;;;2.08;;
18732;SDS011;9495;51.210;2.934;2022-07-29T00:57:11;6.35;;;2.28;;
18732;SDS011;9495;51.210;2.934;2022-07-29T00:59:40;5.35;;;2.50;;
18732;SDS011;9495;51.210;2.934;2022-07-29T01:02:09;3.25;;;2.00;;
18732;SDS011;9495;51.210;2.934;2022-07-29T01:04:37;5.32;;;2.25;;
18732;SDS011;9495;51.210;2.934;2022-07-29T01:07:06;7.47;;;2.70;;
18732;SDS011;9495;51.210;2.934;2022-07-29T01:09:35;5.97;;;2.42;;
18732;SDS011;9495;51.210;2.934;2022-07-29T01:12:14;9.60;;;2.85;;
18732;SDS011;9495;51.210;2.934;2022-07-29T01:14:45;3.90;;;2.70;;
18732;SDS011;9495;51.210;2.934;2022-07-29T01:17:17;5.63;;;2.42;;
18732;SDS011;9495;51.210;2.934;2022-07-29T01:19:49;5.05;;;2.58;;
18732;SDS011;9495;51.210;2.934;2022-07-29T01:22:25;5.97;;;2.20;;
18732;SDS011;9495;51.210;2.934;2022-07-29T01:25:04;8.35;;;2.60;;
18732;SDS011;9495;51.210;2.934;2022-07-29T01:27:55;4.85;;;2.60;;
18732;SDS011;9495;51.210;2.934;2022-07-29T01:30:38;3.45;;;2.40;;
18732;SDS011;9495;51.210;2.934;2022-07-29T01:33:11;8.27;;;2.90;;
18732;SDS011;9495;51.210;2.934;2022-07-29T01:35:58;6.65;;;3.05;;
18732;SDS011;9495;51.210;2.934;2022-07-29T01:38:29;7.25;;;2.60;;
18732;SDS011;9495;51.210;2.934;2022-07-29T01:40:58;6.18;;;2.65;;
18732;SDS011;9495;51.210;2.934;2022-07-29T01:43:48;5.43;;;2.40;;
18732;SDS011;9495;51.210;2.934;2022-07-29T01:46:23;4.07;;;2.60;;
18732;SDS011;9495;51.210;2.934;2022-07-29T01:48:55;7.18;;;2.63;;
18732;SDS011;9495;51.210;2.934;2022-07-29T01:51:29;11.82;;;2.63;;
18732;SDS011;9495;51.210;2.934;2022-07-29T01:54:04;6.82;;;2.83;;
18732;SDS011;9495;51.210;2.934;2022-07-29T01:56:39;8.00;;;2.80;;
18732;SDS011;9495;51.210;2.934;2022-07-29T01:59:10;10.30;;;3.10;;
18732;SDS011;9495;51.210;2.934;2022-07-29T02:01:40;5.43;;;2.90;;
18732;SDS011;9495;51.210;2.934;2022-07-29T02:04:12;3.88;;;2.78;;
18732;SDS011;9495;51.210;2.934;2022-07-29T02:06:56;5.57;;;3.13;;
18732;SDS011;9495;51.210;2.934;2022-07-29T02:09:32;3.67;;;2.75;;
18732;SDS011;9495;51.210;2.934;2022-07-29T02:12:03;4.85;;;2.58;;
18732;SDS011;9495;51.210;2.934;2022-07-29T02:14:36;6.63;;;3.20;;
18732;SDS011;9495;51.210;2.934;2022-07-29T02:17:08;4.03;;;2.60;;
18732;SDS011;9495;51.210;2.934;2022-07-29T02:19:38;5.53;;;3.08;;
18732;SDS011;9495;51.210;2.934;2022-07-29T02:22:08;4.95;;;2.67;;
18732;SDS011;9495;51.210;2.934;2022-07-29T02:24:38;5.43;;;2.92;;
18732;SDS011;9495;51.210;2.934;2022-07-29T02:27:08;4.32;;;2.70;;
18732;SDS011;9495;51.210;2.934;2022-07-29T02:29:38;7.50;;;3.33;;
18732;SDS011;9495;51.210;2.934;2022-07-29T02:32:09;6.32;;;3.40;;
18732;SDS011;9495;51.210;2.934;2022-07-29T02:34:39;3.95;;;3.22;;
18732;SDS011;9495;51.210;2.934;2022-07-29T02:37:08;6.50;;;3.17;;
18732;SDS011;9495;51.210;2.934;2022-07-29T02:39:37;6.50;;;3.70;;
18732;SDS011;9495;51.210;2.934;2022-07-29T02:42:09;8.10;;;3.20;;
18732;SDS011;9495;51.210;2.934;2022-07-29T02:44:40;5.65;;;2.95;;
18732;SDS011;9495;51.210;2.934;2022-07-29T02:47:12;9.52;;;3.50;;
18732;SDS011;9495;51.210;2.934;2022-07-29T02:49:47;4.97;;;2.95;;
18732;SDS011;9495;51.210;2.934;2022-07-29T02:52:21;8.85;;;3.03;;
18732;SDS011;9495;51.210;2.934;2022-07-29T02:54:53;5.72;;;2.90;;
18732;SDS011;9495;51.210;2.934;2022-07-29T02:57:28;8.32;;;3.20;;
18732;SDS011;9495;51.210;2.934;2022-07-29T03:00:20;6.72;;;2.85;;
18732;SDS011;9495;51.210;2.934;2022-07-29T03:02:52;6.03;;;3.17;;
18732;SDS011;9495;51.210;2.934;2022-07-29T03:05:23;6.80;;;2.75;;
18732;SDS011;9495;51.210;2.934;2022-07-29T03:07:54;6.22;;;3.05;;
18732;SDS011;9495;51.210;2.934;2022-07-29T03:10:24;5.82;;;3.22;;
18732;SDS011;9495;51.210;2.934;2022-07-29T03:12:54;5.85;;;2.60;;
18732;SDS011;9495;51.210;2.934;2022-07-29T03:15:24;7.53;;;3.17;;
18732;SDS011;9495;51.210;2.934;2022-07-29T03:17:55;4.15;;;3.00;;
18732;SDS011;9495;51.210;2.934;2022-07-29T03:20:24;10.05;;;3.33;;
18732;SDS011;9495;51.210;2.934;2022-07-29T03:22:53;6.50;;;2.65;;
18732;SDS011;9495;51.210;2.934;2022-07-29T03:25:21;6.38;;;2.70;;
18732;SDS011;9495;51.210;2.934;2022-07-29T03:27:50;6.25;;;2.75;;
18732;SDS011;9495;51.210;2.934;2022-07-29T03:30:18;7.38;;;2.60;;
18732;SDS011;9495;51.210;2.934;2022-07-29T03:32:48;4.05;;;2.33;;
18732;SDS011;9495;51.210;2.934;2022-07-29T03:35:19;10.85;;;2.80;;
18732;SDS011;9495;51.210;2.934;2022-07-29T03:37:47;14.10;;;2.88;;
18732;SDS011;9495;51.210;2.934;2022-07-29T03:40:18;7.65;;;2.92;;
18732;SDS011;9495;51.210;2.934;2022-07-29T03:42:49;4.82;;;2.67;;
18732;SDS011;9495;51.210;2.934;2022-07-29T03:45:21;7.82;;;2.92;;
18732;SDS011;9495;51.210;2.934;2022-07-29T03:47:51;6.65;;;2.83;;
18732;SDS011;9495;51.210;2.934;2022-07-29T03:50:28;5.97;;;2.88;;
18732;SDS011;9495;51.210;2.934;2022-07-29T03:52:58;6.18;;;2.60;;
18732;SDS011;9495;51.210;2.934;2022-07-29T03:55:28;6.97;;;2.40;;
18732;SDS011;9495;51.210;2.934;2022-07-29T03:57:58;4.13;;;2.75;;
18732;SDS011;9495;51.210;2.934;2022-07-29T04:00:29;5.25;;;2.58;;
18732;SDS011;9495;51.210;2.934;2022-07-29T04:02:59;6.35;;;2.70;;
18732;SDS011;9495;51.210;2.934;2022-07-29T04:05:29;4.25;;;2.60;;
18732;SDS011;9495;51.210;2.934;2022-07-29T04:07:58;6.65;;;2.67;;
18732;SDS011;9495;51.210;2.934;2022-07-29T04:10:26;8.55;;;2.70;;
18732;SDS011;9495;51.210;2.934;2022-07-29T04:12:57;6.75;;;2.58;;
18732;SDS011;9495;51.210;2.934;2022-07-29T04:15:26;5.38;;;3.25;;
18732;SDS011;9495;51.210;2.934;2022-07-29T04:17:57;6.40;;;2.65;;
18732;SDS011;9495;51.210;2.934;2022-07-29T04:20:25;4.93;;;2.90;;
18732;SDS011;9495;51.210;2.934;2022-07-29T04:22:55;5.20;;;2.95;;
18732;SDS011;9495;51.210;2.934;2022-07-29T04:25:24;7.65;;;2.88;;
18732;SDS011;9495;51.210;2.934;2022-07-29T04:27:52;8.13;;;2.63;;
18732;SDS011;9495;51.210;2.934;2022-07-29T04:30:29;4.82;;;2.60;;
18732;SDS011;9495;51.210;2.934;2022-07-29T04:32:58;4.90;;;2.95;;
18732;SDS011;9495;51.210;2.934;2022-07-29T04:35:28;7.32;;;3.17;;
18732;SDS011;9495;51.210;2.934;2022-07-29T04:38:05;4.97;;;3.08;;
18732;SDS011;9495;51.210;2.934;2022-07-29T04:40:42;5.15;;;3.30;;
18732;SDS011;9495;51.210;2.934;2022-07-29T04:43:12;3.47;;;2.80;;
18732;SDS011;9495;51.210;2.934;2022-07-29T04:45:47;6.82;;;2.90;;
18732;SDS011;9495;51.210;2.934;2022-07-29T04:48:16;5.95;;;2.85;;
18732;SDS011;9495;51.210;2.934;2022-07-29T04:50:48;5.45;;;2.83;;
18732;SDS011;9495;51.210;2.934;2022-07-29T04:53:18;8.48;;;3.03;;
18732;SDS011;9495;51.210;2.934;2022-07-29T04:55:46;5.97;;;3.03;;
18732;SDS011;9495;51.210;2.934;2022-07-29T04:58:15;6.97;;;3.08;;
18732;SDS011;9495;51.210;2.934;2022-07-29T05:00:43;8.45;;;3.08;;
18732;SDS011;9495;51.210;2.934;2022-07-29T05:03:12;5.40;;;2.97;;
18732;SDS011;9495;51.210;2.934;2022-07-29T05:05:40;10.27;;;3.10;;
18732;SDS011;9495;51.210;2.934;2022-07-29T05:08:08;7.10;;;3.10;;
18732;SDS011;9495;51.210;2.934;2022-07-29T05:10:38;5.50;;;2.65;;
18732;SDS011;9495;51.210;2.934;2022-07-29T05:13:07;3.75;;;2.83;;
18732;SDS011;9495;51.210;2.934;2022-07-29T05:15:36;5.63;;;2.90;;
18732;SDS011;9495;51.210;2.934;2022-07-29T05:18:05;7.10;;;3.30;;
18732;SDS011;9495;51.210;2.934;2022-07-29T05:20:34;7.05;;;2.95;;
18732;SDS011;9495;51.210;2.934;2022-07-29T05:23:02;13.32;;;3.03;;
18732;SDS011;9495;51.210;2.934;2022-07-29T05:25:31;6.88;;;2.75;;
18732;SDS011;9495;51.210;2.934;2022-07-29T05:28:11;6.05;;;2.90;;
18732;SDS011;9495;51.210;2.934;2022-07-29T05:30:40;6.57;;;3.17;;
18732;SDS011;9495;51.210;2.934;2022-07-29T05:33:08;7.75;;;2.95;;
18732;SDS011;9495;51.210;2.934;2022-07-29T05:35:57;5.15;;;2.92;;
18732;SDS011;9495;51.210;2.934;2022-07-29T05:38:26;6.10;;;2.97;;
18732;SDS011;9495;51.210;2.934;2022-07-29T05:40:56;10.43;;;3.33;;
18732;SDS011;9495;51.210;2.934;2022-07-29T05:43:26;8.35;;;3.20;;
18732;SDS011;9495;51.210;2.934;2022-07-29T05:45:55;4.75;;;2.75;;
18732;SDS011;9495;51.210;2.934;2022-07-29T05:48:24;5.88;;;2.80;;
18732;SDS011;9495;51.210;2.934;2022-07-29T05:50:53;9.93;;;2.85;;
18732;SDS011;9495;51.210;2.934;2022-07-29T05:53:21;6.03;;;2.90;;
18732;SDS011;9495;51.210;2.934;2022-07-29T05:55:50;6.07;;;3.42;;
18732;SDS011;9495;51.210;2.934;2022-07-29T05:58:19;8.93;;;3.35;;
18732;SDS011;9495;51.210;2.934;2022-07-29T06:00:49;6.75;;;3.05;;
18732;SDS011;9495;51.210;2.934;2022-07-29T06:03:17;9.65;;;3.33;;
18732;SDS011;9495;51.210;2.934;2022-07-29T06:05:45;7.32;;;3.33;;
18732;SDS011;9495;51.210;2.934;2022-07-29T06:08:14;5.65;;;2.88;;
18732;SDS011;9495;51.210;2.934;2022-07-29T06:10:42;5.80;;;2.90;;
18732;SDS011;9495;51.210;2.934;2022-07-29T06:13:11;7.43;;;3.03;;
18732;SDS011;9495;51.210;2.934;2022-07-29T06:15:42;9.60;;;3.10;;
18732;SDS011;9495;51.210;2.934;2022-07-29T06:18:13;6.53;;;3.03;;
18732;SDS011;9495;51.210;2.934;2022-07-29T06:20:42;8.23;;;3.30;;
18732;SDS011;9495;51.210;2.934;2022-07-29T06:23:10;8.32;;;3.20;;
18732;SDS011;9495;51.210;2.934;2022-07-29T06:25:39;5.00;;;2.95;;
18732;SDS011;9495;51.210;2.934;2022-07-29T06:28:09;7.85;;;3.03;;
18732;SDS011;9495;51.210;2.934;2022-07-29T06:30:37;9.85;;;3.33;;
18732;SDS011;9495;51.210;2.934;2022-07-29T06:33:06;6.30;;;2.90;;
18732;SDS011;9495;51.210;2.934;2022-07-29T06:35:36;8.88;;;3.03;;
18732;SDS011;9495;51.210;2.934;2022-07-29T06:38:10;7.28;;;2.70;;
18732;SDS011;9495;51.210;2.934;2022-07-29T06:40:59;4.10;;;2.75;;
18732;SDS011;9495;51.210;2.934;2022-07-29T06:43:29;9.00;;;3.13;;
18732;SDS011;9495;51.210;2.934;2022-07-29T06:46:00;9.18;;;2.97;;
18732;SDS011;9495;51.210;2.934;2022-07-29T06:48:29;5.53;;;2.80;;
18732;SDS011;9495;51.210;2.934;2022-07-29T06:50:59;8.30;;;2.45;;
18732;SDS011;9495;51.210;2.934;2022-07-29T06:53:28;10.43;;;3.08;;
18732;SDS011;9495;51.210;2.934;2022-07-29T06:55:57;7.47;;;2.58;;
18732;SDS011;9495;51.210;2.934;2022-07-29T06:58:26;7.43;;;2.80;;
18732;SDS011;9495;51.210;2.934;2022-07-29T07:00:56;7.03;;;2.40;;
18732;SDS011;9495;51.210;2.934;2022-07-29T07:03:25;5.35;;;2.60;;
18732;SDS011;9495;51.210;2.934;2022-07-29T07:05:53;8.00;;;2.60;;
18732;SDS011;9495;51.210;2.934;2022-07-29T07:08:27;10.48;;;3.17;;
18732;SDS011;9495;51.210;2.934;2022-07-29T07:10:55;17.70;;;3.05;;
18732;SDS011;9495;51.210;2.934;2022-07-29T07:13:24;6.65;;;2.58;;
18732;SDS011;9495;51.210;2.934;2022-07-29T07:15:52;4.93;;;2.60;;
18732;SDS011;9495;51.210;2.934;2022-07-29T07:18:21;9.13;;;2.40;;
18732;SDS011;9495;51.210;2.934;2022-07-29T07:20:49;5.20;;;2.67;;
18732;SDS011;9495;51.210;2.934;2022-07-29T07:23:18;5.32;;;2.47;;
18732;SDS011;9495;51.210;2.934;2022-07-29T07:25:47;6.47;;;2.60;;
18732;SDS011;9495;51.210;2.934;2022-07-29T07:28:16;11.63;;;3.50;;
18732;SDS011;9495;51.210;2.934;2022-07-29T07:30:50;6.68;;;2.50;;
18732;SDS011;9495;51.210;2.934;2022-07-29T07:33:18;5.40;;;2.70;;
18732;SDS011;9495;51.210;2.934;2022-07-29T07:35:47;7.55;;;2.97;;
18732;SDS011;9495;51.210;2.934;2022-07-29T07:38:15;5.57;;;2.90;;
18732;SDS011;9495;51.210;2.934;2022-07-29T07:40:44;6.38;;;2.97;;
18732;SDS011;9495;51.210;2.934;2022-07-29T07:43:14;7.25;;;3.03;;
18732;SDS011;9495;51.210;2.934;2022-07-29T07:45:43;8.25;;;3.28;;
18732;SDS011;9495;51.210;2.934;2022-07-29T07:48:11;10.73;;;3.55;;
18732;SDS011;9495;51.210;2.934;2022-07-29T07:50:39;8.00;;;3.22;;
18732;SDS011;9495;51.210;2.934;2022-07-29T07:53:08;8.68;;;3.20;;
18732;SDS011;9495;51.210;2.934;2022-07-29T07:55:39;9.98;;;3.30;;
18732;SDS011;9495;51.210;2.934;2022-07-29T07:58:29;5.45;;;2.85;;
18732;SDS011;9495;51.210;2.934;2022-07-29T08:00:57;7.50;;;3.28;;
18732;SDS011;9495;51.210;2.934;2022-07-29T08:03:26;4.25;;;3.17;;
18732;SDS011;9495;51.210;2.934;2022-07-29T08:05:54;6.10;;;2.97;;
18732;SDS011;9495;51.210;2.934;2022-07-29T08:08:23;6.03;;;3.08;;
18732;SDS011;9495;51.210;2.934;2022-07-29T08:10:52;9.68;;;3.45;;
18732;SDS011;9495;51.210;2.934;2022-07-29T08:13:22;8.25;;;3.30;;
18732;SDS011;9495;51.210;2.934;2022-07-29T08:15:55;7.70;;;3.13;;
18732;SDS011;9495;51.210;2.934;2022-07-29T08:18:28;7.28;;;3.42;;
18732;SDS011;9495;51.210;2.934;2022-07-29T08:20:58;3.80;;;3.22;;
18732;SDS011;9495;51.210;2.934;2022-07-29T08:23:26;7.93;;;3.30;;
18732;SDS011;9495;51.210;2.934;2022-07-29T08:26:14;6.50;;;3.30;;
18732;SDS011;9495;51.210;2.934;2022-07-29T08:28:43;4.72;;;3.40;;
18732;SDS011;9495;51.210;2.934;2022-07-29T08:31:13;5.53;;;3.30;;
18732;SDS011;9495;51.210;2.934;2022-07-29T08:33:42;6.45;;;3.50;;
18732;SDS011;9495;51.210;2.934;2022-07-29T08:36:11;10.50;;;4.20;;
18732;SDS011;9495;51.210;2.934;2022-07-29T08:38:40;5.43;;;3.30;;
18732;SDS011;9495;51.210;2.934;2022-07-29T08:41:08;7.18;;;3.70;;
18732;SDS011;9495;51.210;2.934;2022-07-29T08:43:37;9.82;;;3.65;;
18732;SDS011;9495;51.210;2.934;2022-07-29T08:46:07;6.60;;;3.17;;
18732;SDS011;9495;51.210;2.934;2022-07-29T08:48:37;5.55;;;3.85;;
18732;SDS011;9495;51.210;2.934;2022-07-29T08:51:08;7.60;;;3.17;;
18732;SDS011;9495;51.210;2.934;2022-07-29T08:53:41;10.02;;;3.78;;
18732;SDS011;9495;51.210;2.934;2022-07-29T08:56:11;4.25;;;3.08;;
18732;SDS011;9495;51.210;2.934;2022-07-29T08:58:40;7.45;;;3.65;;
18732;SDS011;9495;51.210;2.934;2022-07-29T09:01:16;6.97;;;3.33;;
18732;SDS011;9495;51.210;2.934;2022-07-29T09:04:02;8.02;;;3.25;;
18732;SDS011;9495;51.210;2.934;2022-07-29T09:06:32;6.88;;;3.58;;
18732;SDS011;9495;51.210;2.934;2022-07-29T09:09:04;6.72;;;3.75;;
18732;SDS011;9495;51.210;2.934;2022-07-29T09:11:34;8.13;;;3.72;;
18732;SDS011;9495;51.210;2.934;2022-07-29T09:14:03;6.00;;;3.78;;
18732;SDS011;9495;51.210;2.934;2022-07-29T09:16:44;15.07;;;3.50;;
18732;SDS011;9495;51.210;2.934;2022-07-29T09:19:21;5.38;;;3.03;;
18732;SDS011;9495;51.210;2.934;2022-07-29T09:21:51;8.65;;;4.13;;
18732;SDS011;9495;51.210;2.934;2022-07-29T09:24:38;6.82;;;3.22;;
18732;SDS011;9495;51.210;2.934;2022-07-29T09:27:10;8.35;;;4.13;;
18732;SDS011;9495;51.210;2.934;2022-07-29T09:29:47;5.60;;;3.58;;
18732;SDS011;9495;51.210;2.934;2022-07-29T09:32:23;9.27;;;4.28;;
18732;SDS011;9495;51.210;2.934;2022-07-29T09:34:59;6.90;;;4.00;;
18732;SDS011;9495;51.210;2.934;2022-07-29T09:37:42;9.68;;;3.58;;
18732;SDS011;9495;51.210;2.934;2022-07-29T09:40:11;13.43;;;4.45;;
18732;SDS011;9495;51.210;2.934;2022-07-29T09:42:42;5.57;;;3.35;;
18732;SDS011;9495;51.210;2.934;2022-07-29T09:45:11;6.55;;;4.00;;
18732;SDS011;9495;51.210;2.934;2022-07-29T09:47:40;7.57;;;3.95;;
18732;SDS011;9495;51.210;2.934;2022-07-29T09:50:14;8.60;;;4.25;;
18732;SDS011;9495;51.210;2.934;2022-07-29T09:52:46;6.32;;;3.85;;
18732;SDS011;9495;51.210;2.934;2022-07-29T09:55:16;8.02;;;4.90;;
18732;SDS011;9495;51.210;2.934;2022-07-29T09:57:45;12.48;;;5.18;;
18732;SDS011;9495;51.210;2.934;2022-07-29T10:00:14;12.13;;;4.95;;
18732;SDS011;9495;51.210;2.934;2022-07-29T10:02:45;8.80;;;5.20;;
18732;SDS011;9495;51.210;2.934;2022-07-29T10:05:20;6.35;;;5.13;;
18732;SDS011;9495;51.210;2.934;2022-07-29T10:07:50;9.30;;;5.43;;
18732;SDS011;9495;51.210;2.934;2022-07-29T10:10:23;8.63;;;5.78;;
18732;SDS011;9495;51.210;2.934;2022-07-29T10:12:53;7.00;;;4.90;;
18732;SDS011;9495;51.210;2.934;2022-07-29T10:15:27;7.35;;;4.80;;
18732;SDS011;9495;51.210;2.934;2022-07-29T10:17:58;11.07;;;6.20;;
18732;SDS011;9495;51.210;2.934;2022-07-29T10:20:28;6.88;;;4.65;;
18732;SDS011;9495;51.210;2.934;2022-07-29T10:22:57;7.30;;;5.80;;
18732;SDS011;9495;51.210;2.934;2022-07-29T10:25:27;8.57;;;4.45;;
18732;SDS011;9495;51.210;2.934;2022-07-29T10:27:56;9.07;;;4.65;;
18732;SDS011;9495;51.210;2.934;2022-07-29T10:30:25;7.78;;;4.60;;
18732;SDS011;9495;51.210;2.934;2022-07-29T10:35:59;8.93;;;5.15;;
18732;SDS011;9495;51.210;2.934;2022-07-29T10:38:42;8.98;;;4.75;;
18732;SDS011;9495;51.210;2.934;2022-07-29T10:41:31;9.55;;;5.65;;
18732;SDS011;9495;51.210;2.934;2022-07-29T10:44:12;4.82;;;3.55;;
18732;SDS011;9495;51.210;2.934;2022-07-29T10:46:45;10.48;;;5.00;;
18732;SDS011;9495;51.210;2.934;2022-07-29T10:49:15;4.78;;;3.38;;
18732;SDS011;9495;51.210;2.934;2022-07-29T10:51:52;13.05;;;4.50;;
18732;SDS011;9495;51.210;2.934;2022-07-29T10:54:36;9.32;;;3.90;;
18732;SDS011;9495;51.210;2.934;2022-07-29T11:00:26;5.18;;;3.53;;
18732;SDS011;9495;51.210;2.934;2022-07-29T11:02:56;6.93;;;3.22;;
18732;SDS011;9495;51.210;2.934;2022-07-29T11:05:30;5.75;;;3.78;;
18732;SDS011;9495;51.210;2.934;2022-07-29T11:08:26;8.95;;;4.20;;
18732;SDS011;9495;51.210;2.934;2022-07-29T11:14:03;5.93;;;4.03;;
18732;SDS011;9495;51.210;2.934;2022-07-29T11:19:32;7.82;;;4.90;;
18732;SDS011;9495;51.210;2.934;2022-07-29T11:22:01;6.43;;;4.20;;
18732;SDS011;9495;51.210;2.934;2022-07-29T11:24:32;10.57;;;4.65;;
18732;SDS011;9495;51.210;2.934;2022-07-29T11:27:05;7.00;;;4.30;;
18732;SDS011;9495;51.210;2.934;2022-07-29T11:29:39;10.05;;;4.57;;
18732;SDS011;9495;51.210;2.934;2022-07-29T11:32:16;10.02;;;4.65;;
18732;SDS011;9495;51.210;2.934;2022-07-29T11:34:49;7.57;;;4.57;;
18732;SDS011;9495;51.210;2.934;2022-07-29T11:37:43;9.32;;;4.63;;
18732;SDS011;9495;51.210;2.934;2022-07-29T11:40:22;9.00;;;4.55;;
18732;SDS011;9495;51.210;2.934;2022-07-29T11:42:51;6.95;;;4.05;;
18732;SDS011;9495;51.210;2.934;2022-07-29T11:45:23;12.32;;;5.07;;
18732;SDS011;9495;51.210;2.934;2022-07-29T11:48:15;8.77;;;5.40;;
18732;SDS011;9495;51.210;2.934;2022-07-29T11:50:57;6.45;;;4.55;;
18732;SDS011;9495;51.210;2.934;2022-07-29T11:53:28;10.65;;;4.70;;
18732;SDS011;9495;51.210;2.934;2022-07-29T11:56:00;6.75;;;4.57;;
18732;SDS011;9495;51.210;2.934;2022-07-29T11:58:29;9.55;;;5.43;;
18732;SDS011;9495;51.210;2.934;2022-07-29T12:00:58;8.48;;;5.53;;
18732;SDS011;9495;51.210;2.934;2022-07-29T12:03:47;9.63;;;5.03;;
18732;SDS011;9495;51.210;2.934;2022-07-29T12:06:32;7.90;;;5.35;;
18732;SDS011;9495;51.210;2.934;2022-07-29T12:09:01;6.47;;;4.70;;
18732;SDS011;9495;51.210;2.934;2022-07-29T12:11:41;7.07;;;5.63;;
18732;SDS011;9495;51.210;2.934;2022-07-29T12:16:57;9.30;;;5.30;;
18732;SDS011;9495;51.210;2.934;2022-07-29T12:19:26;7.90;;;5.18;;
18732;SDS011;9495;51.210;2.934;2022-07-29T12:21:56;8.23;;;5.55;;
18732;SDS011;9495;51.210;2.934;2022-07-29T12:24:28;7.65;;;5.15;;
18732;SDS011;9495;51.210;2.934;2022-07-29T12:27:11;7.07;;;4.07;;
18732;SDS011;9495;51.210;2.934;2022-07-29T12:29:55;6.30;;;4.95;;
18732;SDS011;9495;51.210;2.934;2022-07-29T12:32:24;7.78;;;5.60;;
18732;SDS011;9495;51.210;2.934;2022-07-29T12:34:59;9.55;;;5.25;;
18732;SDS011;9495;51.210;2.934;2022-07-29T12:37:32;6.28;;;4.72;;
18732;SDS011;9495;51.210;2.934;2022-07-29T12:40:08;8.85;;;5.30;;
18732;SDS011;9495;51.210;2.934;2022-07-29T12:42:39;7.90;;;5.00;;
18732;SDS011;9495;51.210;2.934;2022-07-29T12:45:07;8.48;;;5.45;;
18732;SDS011;9495;51.210;2.934;2022-07-29T12:47:50;7.65;;;5.53;;
18732;SDS011;9495;51.210;2.934;2022-07-29T12:50:19;8.05;;;4.53;;
18732;SDS011;9495;51.210;2.934;2022-07-29T12:52:51;10.75;;;5.03;;
18732;SDS011;9495;51.210;2.934;2022-07-29T12:58:07;6.88;;;4.68;;
18732;SDS011;9495;51.210;2.934;2022-07-29T13:00:36;9.05;;;5.28;;
18732;SDS011;9495;51.210;2.934;2022-07-29T13:03:05;11.90;;;4.93;;
18732;SDS011;9495;51.210;2.934;2022-07-29T13:05:40;8.30;;;5.10;;
18732;SDS011;9495;51.210;2.934;2022-07-29T13:08:15;7.78;;;4.90;;
18732;SDS011;9495;51.210;2.934;2022-07-29T13:10:45;8.95;;;5.03;;
18732;SDS011;9495;51.210;2.934;2022-07-29T13:13:15;7.90;;;5.35;;
18732;SDS011;9495;51.210;2.934;2022-07-29T13:15:45;8.40;;;4.65;;
18732;SDS011;9495;51.210;2.934;2022-07-29T13:18:26;7.07;;;4.15;;
18732;SDS011;9495;51.210;2.934;2022-07-29T13:20:55;6.20;;;4.70;;
18732;SDS011;9495;51.210;2.934;2022-07-29T13:23:24;7.90;;;4.80;;
18732;SDS011;9495;51.210;2.934;2022-07-29T13:25:52;9.25;;;5.65;;
18732;SDS011;9495;51.210;2.934;2022-07-29T13:28:22;12.85;;;5.40;;
18732;SDS011;9495;51.210;2.934;2022-07-29T13:30:51;10.80;;;5.93;;
18732;SDS011;9495;51.210;2.934;2022-07-29T13:33:19;7.40;;;5.35;;
18732;SDS011;9495;51.210;2.934;2022-07-29T13:35:48;7.82;;;5.45;;
18732;SDS011;9495;51.210;2.934;2022-07-29T13:38:17;7.25;;;5.20;;
18732;SDS011;9495;51.210;2.934;2022-07-29T13:40:45;7.20;;;4.93;;
18732;SDS011;9495;51.210;2.934;2022-07-29T13:43:13;8.43;;;5.47;;
18732;SDS011;9495;51.210;2.934;2022-07-29T13:45:43;9.10;;;5.18;;
18732;SDS011;9495;51.210;2.934;2022-07-29T13:48:12;9.05;;;5.55;;
18732;SDS011;9495;51.210;2.934;2022-07-29T13:50:40;9.73;;;5.82;;
18732;SDS011;9495;51.210;2.934;2022-07-29T13:53:08;7.05;;;4.40;;
18732;SDS011;9495;51.210;2.934;2022-07-29T13:55:44;6.72;;;4.38;;
18732;SDS011;9495;51.210;2.934;2022-07-29T13:58:13;6.32;;;4.07;;
18732;SDS011;9495;51.210;2.934;2022-07-29T14:00:43;9.10;;;5.20;;
18732;SDS011;9495;51.210;2.934;2022-07-29T14:03:13;7.70;;;4.07;;
18732;SDS011;9495;51.210;2.934;2022-07-29T14:05:41;8.23;;;4.57;;
18732;SDS011;9495;51.210;2.934;2022-07-29T14:08:09;7.32;;;4.20;;
18732;SDS011;9495;51.210;2.934;2022-07-29T14:10:38;7.25;;;4.13;;
18732;SDS011;9495;51.210;2.934;2022-07-29T14:13:06;7.03;;;5.03;;
18732;SDS011;9495;51.210;2.934;2022-07-29T14:15:55;12.48;;;4.10;;
18732;SDS011;9495;51.210;2.934;2022-07-29T14:18:23;8.50;;;4.40;;
18732;SDS011;9495;51.210;2.934;2022-07-29T14:20:52;8.38;;;4.93;;
18732;SDS011;9495;51.210;2.934;2022-07-29T14:23:20;6.65;;;4.15;;
18732;SDS011;9495;51.210;2.934;2022-07-29T14:25:49;8.65;;;5.20;;
18732;SDS011;9495;51.210;2.934;2022-07-29T14:28:18;6.78;;;4.70;;
18732;SDS011;9495;51.210;2.934;2022-07-29T14:30:47;9.48;;;5.13;;
18732;SDS011;9495;51.210;2.934;2022-07-29T14:33:17;5.78;;;5.18;;
18732;SDS011;9495;51.210;2.934;2022-07-29T14:35:45;11.20;;;5.55;;
18732;SDS011;9495;51.210;2.934;2022-07-29T14:38:14;9.25;;;5.55;;
18732;SDS011;9495;51.210;2.934;2022-07-29T14:40:43;7.75;;;5.28;;
18732;SDS011;9495;51.210;2.934;2022-07-29T14:43:16;7.85;;;4.10;;
18732;SDS011;9495;51.210;2.934;2022-07-29T14:45:47;7.78;;;4.95;;
18732;SDS011;9495;51.210;2.934;2022-07-29T14:48:17;6.72;;;4.93;;
18732;SDS011;9495;51.210;2.934;2022-07-29T14:50:45;8.88;;;4.78;;
18732;SDS011;9495;51.210;2.934;2022-07-29T14:53:13;7.85;;;4.90;;
18732;SDS011;9495;51.210;2.934;2022-07-29T14:55:42;7.65;;;5.47;;
18732;SDS011;9495;51.210;2.934;2022-07-29T14:58:11;8.63;;;5.40;;
18732;SDS011;9495;51.210;2.934;2022-07-29T15:00:42;10.18;;;4.60;;
18732;SDS011;9495;51.210;2.934;2022-07-29T15:03:10;8.85;;;5.13;;
18732;SDS011;9495;51.210;2.934;2022-07-29T15:05:53;5.57;;;5.00;;
18732;SDS011;9495;51.210;2.934;2022-07-29T15:08:22;7.38;;;4.63;;
18732;SDS011;9495;51.210;2.934;2022-07-29T15:10:51;8.25;;;5.03;;
18732;SDS011;9495;51.210;2.934;2022-07-29T15:13:20;7.95;;;4.93;;
18732;SDS011;9495;51.210;2.934;2022-07-29T15:15:48;9.80;;;4.68;;
18732;SDS011;9495;51.210;2.934;2022-07-29T15:18:20;8.10;;;4.63;;
18732;SDS011;9495;51.210;2.934;2022-07-29T15:20:52;7.47;;;4.55;;
18732;SDS011;9495;51.210;2.934;2022-07-29T15:23:21;8.55;;;4.03;;
18732;SDS011;9495;51.210;2.934;2022-07-29T15:25:49;7.15;;;4.70;;
18732;SDS011;9495;51.210;2.934;2022-07-29T15:28:17;6.32;;;4.50;;
18732;SDS011;9495;51.210;2.934;2022-07-29T15:30:46;10.18;;;5.18;;
18732;SDS011;9495;51.210;2.934;2022-07-29T15:33:14;5.38;;;3.92;;
18732;SDS011;9495;51.210;2.934;2022-07-29T15:35:42;7.78;;;4.18;;
18732;SDS011;9495;51.210;2.934;2022-07-29T15:38:12;6.30;;;3.92;;
18732;SDS011;9495;51.210;2.934;2022-07-29T15:40:41;6.30;;;3.95;;
18732;SDS011;9495;51.210;2.934;2022-07-29T15:43:10;11.50;;;4.03;;
18732;SDS011;9495;51.210;2.934;2022-07-29T15:45:39;7.03;;;3.92;;